createdAt,value
2019-02-20T00:00:02.114Z,198.38
2019-02-20T00:02:35.776Z,206.97
2019-02-20T00:05:09.741Z,209.50
2019-02-20T00:07:43.695Z,211.13
2019-02-20T00:10:17.539Z,191.50
2019-02-20T00:12:51.095Z,191.25
2019-02-20T00:15:25.181Z,180.32
2019-02-20T00:17:59.181Z,192.28
2019-02-20T00:20:32.799Z,183.27
2019-02-20T00:23:08.224Z,171.57
2019-02-20T00:25:42.171Z,172.70
2019-02-20T00:28:15.775Z,178.83
2019-02-20T00:30:49.609Z,171.70
2019-02-20T00:33:23.564Z,173.53
2019-02-20T00:35:58.490Z,179.97
2019-02-20T00:38:33.328Z,173.85
2019-02-20T00:41:07.217Z,185.27
2019-02-20T00:43:40.925Z,190.27
2019-02-20T00:46:14.757Z,176.80
2019-02-20T00:48:48.101Z,200.13
2019-02-20T00:51:21.875Z,180.90
2019-02-20T00:53:55.663Z,172.57
2019-02-20T00:56:29.246Z,170.27
2019-02-20T00:59:04.004Z,190.33
2019-02-20T01:01:38.178Z,183.23
2019-02-20T01:04:11.755Z,176.43
2019-02-20T01:06:45.565Z,186.23
2019-02-20T01:09:19.280Z,191.47
2019-02-20T01:11:54.592Z,177.90
2019-02-20T01:14:28.341Z,193.07
2019-02-20T01:17:03.055Z,189.73
2019-02-20T01:19:36.820Z,172.53
2019-02-20T01:22:10.572Z,165.47
2019-02-20T01:24:45.835Z,171.00
2019-02-20T01:27:19.501Z,196.23
2019-02-20T01:29:53.485Z,179.33
2019-02-20T01:32:27.774Z,184.97
2019-02-20T01:35:01.500Z,185.80
2019-02-20T01:37:36.548Z,186.67
2019-02-20T01:40:13.463Z,180.60
2019-02-20T01:42:47.575Z,175.53
2019-02-20T01:45:21.596Z,180.97
2019-02-20T01:47:56.354Z,187.50
2019-02-20T01:50:31.605Z,191.50
2019-02-20T01:53:10.464Z,183.80
2019-02-20T01:55:40.381Z,182.80
2019-02-20T01:58:15.875Z,174.47
2019-02-20T02:00:49.826Z,172.40
2019-02-20T02:03:23.605Z,173.40
2019-02-20T02:05:57.373Z,166.33
2019-02-20T02:08:31.473Z,178.10
2019-02-20T02:11:05.227Z,166.43
2019-02-20T02:13:40.685Z,179.20
2019-02-20T02:16:14.775Z,166.90
2019-02-20T02:18:50.314Z,157.53
2019-02-20T02:21:24.475Z,164.87
2019-02-20T02:23:58.384Z,153.77
2019-02-20T02:26:32.274Z,161.20
2019-02-20T02:29:06.096Z,168.37
2019-02-20T02:31:39.668Z,161.87
2019-02-20T02:34:13.397Z,170.57
2019-02-20T02:36:47.058Z,172.37
2019-02-20T02:39:20.729Z,165.10
2019-02-20T02:41:54.495Z,167.43
2019-02-20T02:44:29.631Z,170.00
2019-02-20T02:47:03.642Z,177.00
2019-02-20T02:49:37.121Z,184.80
2019-02-20T02:52:10.791Z,174.43
2019-02-20T02:54:44.638Z,170.60
2019-02-20T02:57:18.493Z,160.53
2019-02-20T02:59:51.732Z,166.83
2019-02-20T03:02:25.387Z,160.43
2019-02-20T03:04:58.996Z,161.30
2019-02-20T03:07:32.762Z,157.33
2019-02-20T03:10:07.427Z,168.43
2019-02-20T03:12:41.597Z,170.67
2019-02-20T03:15:15.611Z,168.83
2019-02-20T03:17:49.099Z,168.10
2019-02-20T03:20:23.027Z,155.10
2019-02-20T03:22:56.923Z,166.70
2019-02-20T03:25:30.667Z,168.60
2019-02-20T03:28:05.757Z,157.23
2019-02-20T03:30:39.488Z,181.67
2019-02-20T03:33:13.029Z,175.20
2019-02-20T03:35:46.687Z,181.83
2019-02-20T03:38:30.092Z,181.13
2019-02-20T03:40:55.234Z,179.60
2019-02-20T03:43:28.978Z,183.77
2019-02-20T03:46:03.086Z,185.50
2019-02-20T03:48:36.949Z,176.90
2019-02-20T03:51:12.478Z,180.83
2019-02-20T03:53:51.391Z,178.30
2019-02-20T03:56:22.274Z,171.25
2019-02-20T03:58:55.937Z,165.33
2019-02-20T04:01:29.486Z,168.10
2019-02-20T04:04:03.282Z,184.10
2019-02-20T04:06:38.311Z,172.50
2019-02-20T04:09:15.001Z,169.40
2019-02-20T04:11:48.591Z,162.17
2019-02-20T04:14:22.970Z,163.45
2019-02-20T04:16:57.202Z,188.85
2019-02-20T04:19:30.837Z,173.57
2019-02-20T04:22:05.871Z,194.63
2019-02-20T04:24:39.760Z,177.57
2019-02-20T04:27:13.314Z,177.53
2019-02-20T04:29:47.229Z,188.47
2019-02-20T04:32:20.896Z,170.17
2019-02-20T04:34:54.705Z,182.07
2019-02-20T04:37:28.428Z,182.97
2019-02-20T04:40:03.390Z,181.87
2019-02-20T04:42:37.530Z,166.53
2019-02-20T04:45:11.642Z,175.80
2019-02-20T04:47:45.426Z,189.43
2019-02-20T04:50:21.214Z,175.13
2019-02-20T04:52:54.807Z,175.63
2019-02-20T04:55:28.374Z,174.87
2019-02-20T04:58:19.369Z,191.87
2019-02-20T05:00:53.078Z,178.47
2019-02-20T05:03:26.878Z,174.77
2019-02-20T05:06:00.445Z,196.03
2019-02-20T05:08:33.996Z,188.17
2019-02-20T05:11:07.686Z,191.33
2019-02-20T05:13:41.287Z,187.60
2019-02-20T05:16:14.895Z,192.40
2019-02-20T05:18:48.838Z,198.38
2019-02-20T05:21:22.567Z,196.78
2019-02-20T05:23:58.725Z,186.37
2019-02-20T05:26:31.951Z,192.28
2019-02-20T05:29:06.606Z,213.15
2019-02-20T05:31:41.969Z,196.70
2019-02-20T05:34:18.523Z,209.20
2019-02-20T05:36:53.552Z,201.47
2019-02-20T05:39:27.280Z,205.40
2019-02-20T05:42:00.870Z,201.47
2019-02-20T05:44:35.908Z,202.50
2019-02-20T05:47:10.858Z,209.50
2019-02-20T05:49:46.028Z,212.43
2019-02-20T05:52:19.516Z,213.23
2019-02-20T05:54:53.400Z,200.77
2019-02-20T05:57:26.866Z,205.27
2019-02-20T06:00:01.717Z,212.40
2019-02-20T06:02:38.147Z,212.50
2019-02-20T06:05:12.378Z,204.10
2019-02-20T06:07:48.123Z,205.37
2019-02-20T06:10:21.924Z,208.13
2019-02-20T06:12:55.419Z,217.23
2019-02-20T06:15:28.791Z,198.43
2019-02-20T06:18:03.271Z,210.28
2019-02-20T06:20:36.905Z,192.73
2019-02-20T06:23:10.624Z,199.35
2019-02-20T06:25:45.527Z,200.67
2019-02-20T06:28:19.086Z,203.30
2019-02-20T06:30:53.693Z,203.83
2019-02-20T06:33:28.408Z,191.97
2019-02-20T06:36:02.047Z,187.53
2019-02-20T06:38:35.932Z,192.87
2019-02-20T06:41:09.815Z,195.13
2019-02-20T06:43:44.120Z,191.05
2019-02-20T06:46:17.875Z,196.83
2019-02-20T06:48:51.416Z,185.87
2019-02-20T06:51:25.540Z,205.33
2019-02-20T06:53:59.417Z,193.13
2019-02-20T06:56:32.955Z,190.00
2019-02-20T06:59:06.746Z,191.17
2019-02-20T07:01:42.294Z,194.17
2019-02-20T07:04:15.906Z,204.50
2019-02-20T07:07:16.061Z,210.97
2019-02-20T07:10:28.393Z,203.15
2019-02-20T07:13:05.047Z,201.47
2019-02-20T07:16:09.889Z,201.63
2019-02-20T07:18:48.052Z,205.10
2019-02-20T07:21:36.779Z,207.87
2019-02-20T07:24:17.263Z,204.00
2019-02-20T07:27:20.812Z,205.25
2019-02-20T07:30:06.029Z,216.97
2019-02-20T07:32:39.953Z,220.87
2019-02-20T07:35:14.242Z,226.87
2019-02-20T07:37:47.891Z,216.77
2019-02-20T07:40:23.032Z,219.73
2019-02-20T07:42:57.638Z,213.13
2019-02-20T07:45:34.439Z,218.63
2019-02-20T07:48:10.147Z,208.50
2019-02-20T07:50:48.706Z,225.03
2019-02-20T07:53:21.238Z,221.30
2019-02-20T07:55:55.700Z,227.17
2019-02-20T07:58:29.783Z,229.83
2019-02-20T08:01:04.125Z,230.03
2019-02-20T08:03:39.619Z,231.57
2019-02-20T08:06:13.559Z,239.30
2019-02-20T08:08:51.019Z,239.70
2019-02-20T08:11:26.329Z,227.57
2019-02-20T08:14:03.499Z,223.77
2019-02-20T08:16:39.050Z,230.18
2019-02-20T08:19:14.061Z,222.27
2019-02-20T08:21:49.018Z,231.67
2019-02-20T08:24:23.540Z,236.23
2019-02-20T08:27:00.845Z,224.70
2019-02-20T08:29:35.570Z,239.33
2019-02-20T08:32:11.570Z,237.68
2019-02-20T08:34:46.258Z,229.23
2019-02-20T08:37:20.515Z,223.30
2019-02-20T08:39:55.281Z,229.43
2019-02-20T08:42:32.811Z,227.22
2019-02-20T08:45:08.233Z,233.50
2019-02-20T08:47:46.084Z,223.93
2019-02-20T08:50:21.921Z,232.33
2019-02-20T08:52:57.623Z,226.80
2019-02-20T08:55:32.496Z,239.95
2019-02-20T08:58:08.380Z,233.07
2019-02-20T09:00:42.647Z,225.47
2019-02-20T09:03:16.878Z,236.72
2019-02-20T09:05:51.196Z,234.70
2019-02-20T09:08:25.955Z,232.20
2019-02-20T09:11:00.114Z,234.73
2019-02-20T09:13:34.402Z,244.50
2019-02-20T09:16:09.722Z,243.70
2019-02-20T09:18:44.407Z,251.70
2019-02-20T09:21:19.213Z,247.67
2019-02-20T09:23:53.370Z,236.20
2019-02-20T09:26:28.607Z,237.33
2019-02-20T09:29:04.636Z,246.90
2019-02-20T09:31:39.056Z,250.50
2019-02-20T09:34:13.498Z,239.50
2019-02-20T09:36:49.289Z,267.77
2019-02-20T09:39:37.646Z,231.33
2019-02-20T09:42:13.665Z,240.73
2019-02-20T09:44:50.205Z,256.80
2019-02-20T09:47:26.825Z,260.10
2019-02-20T09:50:01.101Z,260.57
2019-02-20T09:52:36.994Z,259.20
2019-02-20T09:55:13.503Z,254.23
2019-02-20T09:57:47.711Z,251.80
2019-02-20T10:00:26.655Z,253.07
2019-02-20T10:03:01.928Z,245.47
2019-02-20T10:05:38.806Z,238.87
2019-02-20T10:08:13.820Z,239.53
2019-02-20T10:10:50.473Z,230.27
2019-02-20T10:13:26.079Z,227.43
2019-02-20T10:16:01.046Z,225.35
2019-02-20T10:18:36.658Z,226.87
2019-02-20T10:21:13.413Z,218.22
2019-02-20T10:23:50.206Z,213.12
2019-02-20T10:26:29.473Z,230.77
2019-02-20T10:29:05.796Z,216.57
2019-02-20T10:31:40.462Z,203.93
2019-02-20T10:34:14.991Z,206.87
2019-02-20T10:36:49.586Z,206.07
2019-02-20T10:39:24.329Z,224.10
2019-02-20T10:42:02.975Z,218.20
2019-02-20T10:44:42.314Z,217.17
2019-02-20T10:47:16.657Z,224.63
2019-02-20T10:49:50.746Z,218.33
2019-02-20T10:52:27.728Z,215.18
2019-02-20T10:55:02.997Z,219.47
2019-02-20T10:57:41.025Z,206.40
2019-02-20T11:00:23.450Z,220.97
2019-02-20T11:02:51.596Z,229.67
2019-02-20T11:05:26.385Z,211.62
2019-02-20T11:08:02.246Z,212.82
2019-02-20T11:10:36.647Z,206.37
2019-02-20T11:13:11.472Z,200.90
2019-02-20T11:15:46.545Z,211.17
2019-02-20T11:18:21.171Z,207.00
2019-02-20T11:20:58.818Z,208.53
2019-02-20T11:23:34.570Z,204.13
2019-02-20T11:26:08.284Z,214.53
2019-02-20T11:28:42.403Z,209.13
2019-02-20T11:31:17.437Z,205.13
2019-02-20T11:33:51.691Z,206.83
2019-02-20T11:36:26.815Z,217.43
2019-02-20T11:39:01.505Z,199.05
2019-02-20T11:41:36.700Z,204.20
2019-02-20T11:44:21.052Z,204.17
2019-02-20T11:46:55.464Z,196.53
2019-02-20T11:49:29.589Z,207.53
2019-02-20T11:52:04.646Z,181.80
2019-02-20T11:54:47.698Z,190.27
2019-02-20T11:57:25.814Z,199.93
2019-02-20T12:00:01.384Z,179.57
2019-02-20T12:02:38.455Z,190.67
2019-02-20T12:05:14.019Z,179.83
2019-02-20T12:07:49.509Z,182.17
2019-02-20T12:10:24.540Z,166.37
2019-02-20T12:12:59.421Z,162.10
2019-02-20T12:15:34.201Z,160.53
2019-02-20T12:18:17.015Z,156.32
2019-02-20T12:20:47.882Z,162.75
2019-02-20T12:23:27.415Z,160.77
2019-02-20T12:26:03.437Z,151.77
2019-02-20T12:28:41.299Z,152.27
2019-02-20T12:31:18.824Z,166.73
2019-02-20T12:33:55.919Z,154.53
2019-02-20T12:36:30.738Z,151.73
2019-02-20T12:39:07.626Z,159.07
2019-02-20T12:41:42.677Z,153.17
2019-02-20T12:44:17.404Z,148.67
2019-02-20T12:46:52.611Z,136.90
2019-02-20T12:49:29.334Z,143.23
2019-02-20T12:52:11.318Z,144.65
2019-02-20T12:54:48.519Z,137.00
2019-02-20T12:57:24.454Z,139.50
2019-02-20T13:00:06.076Z,146.23
2019-02-20T13:02:43.468Z,136.70
2019-02-20T13:05:22.503Z,140.70
2019-02-20T13:07:58.510Z,135.67
2019-02-20T13:10:45.984Z,139.03
2019-02-20T13:13:23.987Z,143.10
2019-02-20T13:16:09.547Z,146.33
2019-02-20T13:18:43.640Z,130.00
2019-02-20T13:21:22.259Z,140.33
2019-02-20T13:23:58.769Z,124.75
2019-02-20T13:26:34.463Z,125.10
2019-02-20T13:29:15.711Z,130.47
2019-02-20T13:31:51.696Z,127.73
2019-02-20T13:34:28.997Z,127.10
2019-02-20T13:37:07.663Z,119.93
2019-02-20T13:39:47.146Z,118.97
2019-02-20T13:42:25.108Z,122.37
2019-02-20T13:45:01.997Z,115.30
2019-02-20T13:47:40.391Z,116.83
2019-02-20T13:50:16.283Z,115.85
2019-02-20T13:52:53.513Z,114.97
2019-02-20T13:55:34.226Z,112.93
2019-02-20T13:58:17.702Z,115.87
2019-02-20T14:00:52.458Z,115.00
2019-02-20T14:03:28.798Z,117.08
2019-02-20T14:06:05.584Z,111.40
2019-02-20T14:08:40.184Z,119.23
2019-02-20T14:11:18.381Z,118.50
2019-02-20T14:13:52.719Z,121.13
2019-02-20T14:16:28.213Z,110.75
2019-02-20T14:19:02.735Z,107.03
2019-02-20T14:21:37.448Z,102.80
2019-02-20T14:24:13.176Z,98.77
2019-02-20T14:26:47.325Z,98.40
2019-02-20T14:29:21.424Z,96.50
2019-02-20T14:31:57.611Z,103.12
2019-02-20T14:34:31.563Z,92.57
2019-02-20T14:37:05.310Z,109.47
2019-02-20T14:39:39.285Z,102.10
2019-02-20T14:42:14.645Z,95.00
2019-02-20T14:44:48.503Z,101.10
2019-02-20T14:47:22.474Z,98.30
2019-02-20T14:49:56.508Z,102.80
2019-02-20T14:52:30.421Z,95.97
2019-02-20T14:55:04.445Z,89.90
2019-02-20T14:57:38.335Z,96.67
2019-02-20T15:00:20.703Z,96.77
2019-02-20T15:02:54.596Z,96.53
2019-02-20T15:05:28.302Z,91.60
2019-02-20T15:08:03.313Z,87.80
2019-02-20T15:10:37.800Z,88.33
2019-02-20T15:13:13.592Z,96.67
2019-02-20T15:15:48.114Z,95.17
2019-02-20T15:18:22.431Z,91.37
2019-02-20T15:20:56.317Z,100.77
2019-02-20T15:23:30.557Z,85.20
2019-02-20T15:26:04.920Z,98.90
2019-02-20T15:28:38.900Z,92.12
2019-02-20T15:34:26.868Z,96.17
2019-02-20T15:37:03.044Z,82.43
2019-02-20T15:39:39.032Z,85.83
2019-02-20T15:42:13.434Z,89.90
2019-02-20T15:44:47.214Z,82.27
2019-02-20T15:47:21.568Z,86.57
2019-02-20T15:49:56.773Z,85.13
2019-02-20T15:52:32.717Z,90.37
2019-02-20T15:55:08.375Z,83.63
2019-02-20T15:57:42.455Z,82.53
2019-02-20T16:00:20.312Z,82.83
2019-02-20T16:02:54.187Z,79.70
2019-02-20T16:05:27.782Z,80.60
2019-02-20T16:08:01.599Z,87.90
2019-02-20T16:10:36.026Z,79.60
2019-02-20T16:13:09.940Z,81.13
2019-02-20T16:15:43.891Z,84.10
2019-02-20T16:18:19.799Z,82.80
2019-02-20T16:20:53.249Z,82.53
2019-02-20T16:23:27.275Z,69.40
2019-02-20T16:26:02.179Z,85.43
2019-02-20T16:28:36.276Z,78.33
2019-02-20T16:31:11.757Z,85.47
2019-02-20T16:33:45.525Z,87.80
2019-02-20T16:36:19.334Z,82.30
2019-02-20T16:38:53.011Z,82.37
2019-02-20T16:41:28.603Z,82.70
2019-02-20T16:44:02.961Z,73.70
2019-02-20T16:46:37.601Z,77.30
2019-02-20T16:49:11.451Z,81.00
2019-02-20T16:51:45.391Z,75.43
2019-02-20T16:54:19.398Z,85.30
2019-02-20T16:56:53.449Z,79.30
2019-02-20T16:59:27.319Z,73.87
2019-02-20T17:02:01.039Z,84.85
2019-02-20T17:04:34.844Z,78.40
2019-02-20T17:07:08.984Z,67.57
2019-02-20T17:09:42.712Z,78.30
2019-02-20T17:12:16.720Z,71.80
2019-02-20T17:14:50.276Z,70.72
2019-02-20T17:17:23.791Z,78.03
2019-02-20T17:19:57.533Z,73.93
2019-02-20T17:22:31.182Z,68.93
2019-02-20T17:25:05.007Z,65.65
2019-02-20T17:27:38.994Z,68.03
2019-02-20T17:30:18.343Z,73.77
2019-02-20T17:32:52.576Z,66.17
2019-02-20T17:35:27.656Z,69.90
2019-02-20T17:38:01.147Z,70.17
2019-02-20T17:40:34.912Z,65.70
2019-02-20T17:43:08.659Z,62.73
2019-02-20T17:45:42.189Z,64.07
2019-02-20T17:48:15.878Z,64.83
2019-02-20T17:50:49.577Z,69.37
2019-02-20T17:53:24.589Z,62.57
2019-02-20T17:55:59.948Z,61.43
2019-02-20T17:58:34.093Z,56.28
2019-02-20T18:01:08.535Z,63.50
2019-02-20T18:03:44.032Z,56.00
2019-02-20T18:06:18.078Z,63.10
2019-02-20T18:08:52.064Z,67.10
2019-02-20T18:11:25.916Z,64.20
2019-02-20T18:14:00.096Z,52.60
2019-02-20T18:16:33.669Z,67.90
2019-02-20T18:19:07.393Z,62.07
2019-02-20T18:21:41.022Z,59.10
2019-02-20T18:24:14.653Z,58.17
2019-02-20T18:26:48.568Z,62.73
2019-02-20T18:29:22.175Z,64.07
2019-02-20T18:31:55.998Z,57.17
2019-02-20T18:34:29.555Z,69.82
2019-02-20T18:37:03.422Z,58.87
2019-02-20T18:39:37.337Z,62.47
2019-02-20T18:42:10.915Z,67.17
2019-02-20T18:44:44.659Z,57.70
2019-02-20T18:47:18.591Z,59.93
2019-02-20T18:49:52.427Z,59.70
2019-02-20T18:52:25.893Z,57.03
2019-02-20T18:55:05.952Z,59.57
2019-02-20T18:57:36.282Z,62.17
2019-02-20T19:00:15.567Z,52.53
2019-02-20T19:02:50.239Z,47.90
2019-02-20T19:05:25.391Z,57.83
2019-02-20T19:07:59.213Z,57.67
2019-02-20T19:10:38.434Z,56.17
2019-02-20T19:13:41.448Z,62.10
2019-02-20T19:16:49.248Z,53.03
2019-02-20T19:19:50.227Z,59.45
2019-02-20T19:23:19.518Z,54.77
2019-02-20T19:26:07.808Z,50.17
2019-02-20T19:28:50.052Z,52.33
2019-02-20T19:31:38.451Z,52.63
2019-02-20T19:34:40.088Z,57.37
2019-02-20T19:37:19.299Z,61.90
2019-02-20T19:39:58.326Z,55.53
2019-02-20T19:42:53.417Z,58.13
2019-02-20T19:45:42.802Z,58.43
2019-02-20T19:48:25.122Z,55.23
2019-02-20T19:51:27.223Z,59.60
2019-02-20T19:54:18.077Z,55.20
2019-02-20T19:57:03.304Z,54.70
2019-02-20T19:59:57.932Z,48.97
2019-02-20T20:02:39.687Z,50.97
2019-02-20T20:05:35.248Z,52.17
2019-02-20T20:08:26.062Z,56.33
2019-02-20T20:11:08.558Z,55.43
2019-02-20T20:13:56.440Z,50.70
2019-02-20T20:16:54.363Z,48.93
2019-02-20T20:19:48.463Z,49.47
2019-02-20T20:22:40.062Z,54.65
2019-02-20T20:25:28.377Z,50.87
2019-02-20T20:28:19.513Z,51.27
2019-02-20T20:31:22.940Z,48.80
2019-02-20T20:34:20.019Z,51.93
2019-02-20T20:36:56.390Z,51.50
2019-02-20T20:40:02.496Z,47.23
2019-02-20T20:42:51.907Z,48.45
2019-02-20T20:45:43.189Z,50.53
2019-02-20T20:48:19.655Z,50.23
2019-02-20T20:51:47.116Z,57.17
2019-02-20T20:54:54.399Z,56.77
2019-02-20T20:57:48.791Z,48.97
2019-02-20T21:04:22.216Z,46.50
2019-02-20T21:07:43.795Z,50.52
2019-02-20T21:10:26.558Z,49.00
2019-02-20T21:13:09.522Z,48.10
2019-02-20T21:15:48.531Z,55.27
2019-02-20T21:18:36.850Z,58.63
2019-02-20T21:21:24.653Z,59.67
2019-02-20T21:24:19.993Z,54.63
2019-02-20T21:27:13.587Z,55.80
2019-02-20T21:30:07.948Z,61.23
2019-02-20T21:32:48.827Z,49.60
2019-02-20T21:35:47.320Z,52.93
2019-02-20T21:38:29.586Z,52.60
2019-02-20T21:41:20.619Z,54.73
2019-02-20T21:44:22.632Z,58.40
2019-02-20T21:47:05.197Z,64.40
2019-02-20T21:50:14.327Z,63.90
2019-02-20T21:53:12.914Z,59.45
2019-02-20T21:56:14.883Z,56.30
2019-02-20T21:59:10.091Z,72.27
2019-02-20T22:02:15.746Z,57.13
2019-02-20T22:05:21.313Z,63.00
2019-02-20T22:08:06.665Z,59.53
2019-02-20T22:10:57.875Z,66.47
2019-02-20T22:13:56.267Z,71.80
2019-02-20T22:16:55.367Z,53.70
2019-02-20T22:19:36.892Z,67.30
2019-02-20T22:22:43.294Z,70.22
2019-02-20T22:25:31.536Z,61.43
2019-02-20T22:28:27.855Z,70.43
2019-02-20T22:31:35.441Z,66.13
2019-02-20T22:34:12.787Z,66.87
2019-02-20T22:37:02.298Z,68.83
2019-02-20T22:40:04.655Z,81.70
2019-02-20T22:42:53.089Z,73.40
2019-02-20T22:45:41.327Z,73.97
2019-02-20T22:48:32.788Z,70.43
2019-02-20T22:51:17.793Z,71.57
2019-02-20T22:54:19.748Z,72.60
2019-02-20T22:57:17.446Z,84.22
2019-02-20T23:00:04.265Z,75.20
2019-02-20T23:02:57.051Z,80.40
2019-02-20T23:06:07.268Z,86.30
2019-02-20T23:09:09.363Z,83.80
2019-02-20T23:12:07.853Z,78.97
2019-02-20T23:14:59.033Z,87.07
2019-02-20T23:17:32.623Z,91.73
2019-02-20T23:20:07.457Z,93.33
2019-02-20T23:22:41.259Z,89.37
2019-02-20T23:25:14.793Z,92.25
2019-02-20T23:27:48.365Z,91.67
2019-02-20T23:30:21.926Z,82.80
2019-02-20T23:32:56.894Z,90.77
2019-02-20T23:35:31.967Z,91.63
2019-02-20T23:38:05.473Z,94.37
2019-02-20T23:40:40.646Z,93.33
2019-02-20T23:43:14.429Z,86.87
2019-02-20T23:45:48.237Z,97.10
2019-02-20T23:48:21.860Z,93.47
2019-02-20T23:50:56.918Z,100.33
2019-02-20T23:53:30.790Z,91.57
2019-02-20T23:56:04.423Z,99.57
2019-02-20T23:58:38.046Z,106.20
